sensor_id;sensor_type;location;lat;lon;timestamp;temperature;humidity
9941;DHT22;5009;50.656;7.188;2023-12-20T05:00:47;7.00;99.90
9941;DHT22;5009;50.656;7.188;2023-12-20T05:03:13;7.00;99.90
9941;DHT22;5009;50.656;7.188;2023-12-20T05:05:39;7.00;99.90
9941;DHT22;5009;50.656;7.188;2023-12-20T05:08:04;7.00;99.90
9941;DHT22;5009;50.656;7.188;2023-12-20T05:10:30;7.00;99.90
9941;DHT22;5009;50.656;7.188;2023-12-20T05:12:55;7.00;99.90
9941;DHT22;5009;50.656;7.188;2023-12-20T05:15:21;7.10;99.90
9941;DHT22;5009;50.656;7.188;2023-12-20T05:17:46;7.00;99.90
9941;DHT22;5009;50.656;7.188;2023-12-20T05:20:12;7.10;99.90
9941;DHT22;5009;50.656;7.188;2023-12-20T05:22:37;7.00;99.90
9941;DHT22;5009;50.656;7.188;2023-12-20T05:25:04;7.00;99.90
9941;DHT22;5009;50.656;7.188;2023-12-20T05:27:29;7.00;99.90
9941;DHT22;5009;50.656;7.188;2023-12-20T05:29:55;7.00;99.90
9941;DHT22;5009;50.656;7.188;2023-12-20T05:32:23;6.90;99.90
9941;DHT22;5009;50.656;7.188;2023-12-20T05:34:49;6.90;99.90
9941;DHT22;5009;50.656;7.188;2023-12-20T05:37:14;6.90;99.90
9941;DHT22;5009;50.656;7.188;2023-12-20T05:39:40;6.90;99.90
9941;DHT22;5009;50.656;7.188;2023-12-20T05:42:05;6.80;99.90
9941;DHT22;5009;50.656;7.188;2023-12-20T05:44:31;6.80;99.90
9941;DHT22;5009;50.656;7.188;2023-12-20T05:46:56;6.80;99.90
9941;DHT22;5009;50.656;7.188;2023-12-20T05:49:22;6.80;99.90
9941;DHT22;5009;50.656;7.188;2023-12-20T05:51:47;6.80;99.90
9941;DHT22;5009;50.656;7.188;2023-12-20T05:54:13;6.80;99.90
9941;DHT22;5009;50.656;7.188;2023-12-20T05:56:39;6.90;99.90
9941;DHT22;5009;50.656;7.188;2023-12-20T05:59:04;6.90;99.90
9941;DHT22;5009;50.656;7.188;2023-12-20T06:01:30;6.80;99.90
9941;DHT22;5009;50.656;7.188;2023-12-20T06:03:55;6.80;99.90
9941;DHT22;5009;50.656;7.188;2023-12-20T06:06:21;6.80;99.90
9941;DHT22;5009;50.656;7.188;2023-12-20T06:08:47;6.80;99.90
9941;DHT22;5009;50.656;7.188;2023-12-20T06:11:12;6.80;99.90
9941;DHT22;5009;50.656;7.188;2023-12-20T06:13:38;6.90;99.90
9941;DHT22;5009;50.656;7.188;2023-12-20T06:16:05;6.80;99.90
9941;DHT22;5009;50.656;7.188;2023-12-20T06:18:32;6.80;99.90
9941;DHT22;5009;50.656;7.188;2023-12-20T06:20:58;6.80;99.90
9941;DHT22;5009;50.656;7.188;2023-12-20T06:23:23;6.90;99.90
9941;DHT22;5009;50.656;7.188;2023-12-20T06:25:49;6.90;99.90
9941;DHT22;5009;50.656;7.188;2023-12-20T06:28:14;6.90;99.90
9941;DHT22;5009;50.656;7.188;2023-12-20T06:30:40;6.90;99.90
9941;DHT22;5009;50.656;7.188;2023-12-20T06:33:05;6.90;99.90
9941;DHT22;5009;50.656;7.188;2023-12-20T06:35:32;6.90;99.90
9941;DHT22;5009;50.656;7.188;2023-12-20T06:37:58;6.90;99.90
9941;DHT22;5009;50.656;7.188;2023-12-20T06:40:23;6.90;99.90
9941;DHT22;5009;50.656;7.188;2023-12-20T06:42:49;6.80;99.90
9941;DHT22;5009;50.656;7.188;2023-12-20T06:45:14;6.80;99.90
9941;DHT22;5009;50.656;7.188;2023-12-20T06:47:40;6.90;99.90
9941;DHT22;5009;50.656;7.188;2023-12-20T06:50:05;6.80;99.90
9941;DHT22;5009;50.656;7.188;2023-12-20T06:52:34;6.90;99.90
9941;DHT22;5009;50.656;7.188;2023-12-20T06:55:02;6.80;99.90
9941;DHT22;5009;50.656;7.188;2023-12-20T06:57:27;6.80;99.90
9941;DHT22;5009;50.656;7.188;2023-12-20T06:59:53;6.80;99.90
9941;DHT22;5009;50.656;7.188;2023-12-20T07:02:19;6.80;99.90
9941;DHT22;5009;50.656;7.188;2023-12-20T07:04:44;6.80;99.90
9941;DHT22;5009;50.656;7.188;2023-12-20T07:07:10;6.80;99.90
9941;DHT22;5009;50.656;7.188;2023-12-20T07:09:35;6.70;99.90
9941;DHT22;5009;50.656;7.188;2023-12-20T07:12:01;6.80;99.90
9941;DHT22;5009;50.656;7.188;2023-12-20T07:14:27;6.80;99.90
9941;DHT22;5009;50.656;7.188;2023-12-20T07:16:53;6.80;99.90
9941;DHT22;5009;50.656;7.188;2023-12-20T07:19:19;6.80;99.90
9941;DHT22;5009;50.656;7.188;2023-12-20T07:21:44;6.80;99.90
9941;DHT22;5009;50.656;7.188;2023-12-20T07:24:10;6.80;99.90
9941;DHT22;5009;50.656;7.188;2023-12-20T07:26:35;6.80;99.90
9941;DHT22;5009;50.656;7.188;2023-12-20T07:29:03;6.80;99.90
9941;DHT22;5009;50.656;7.188;2023-12-20T07:31:29;6.80;99.90
9941;DHT22;5009;50.656;7.188;2023-12-20T07:33:55;6.80;99.90
9941;DHT22;5009;50.656;7.188;2023-12-20T07:36:20;6.80;99.90
9941;DHT22;5009;50.656;7.188;2023-12-20T07:38:47;6.80;99.90
9941;DHT22;5009;50.656;7.188;2023-12-20T07:41:13;6.90;99.90
9941;DHT22;5009;50.656;7.188;2023-12-20T07:43:39;6.90;99.90
9941;DHT22;5009;50.656;7.188;2023-12-20T07:46:07;6.90;99.90
9941;DHT22;5009;50.656;7.188;2023-12-20T07:48:35;6.90;99.90
9941;DHT22;5009;50.656;7.188;2023-12-20T07:51:01;6.80;99.90
9941;DHT22;5009;50.656;7.188;2023-12-20T07:53:27;6.80;99.90
9941;DHT22;5009;50.656;7.188;2023-12-20T07:55:52;6.80;99.90
9941;DHT22;5009;50.656;7.188;2023-12-20T07:58:18;6.90;99.90
9941;DHT22;5009;50.656;7.188;2023-12-20T08:00:44;6.90;99.90
9941;DHT22;5009;50.656;7.188;2023-12-20T08:03:09;6.90;99.90
9941;DHT22;5009;50.656;7.188;2023-12-20T08:05:35;6.90;99.90
9941;DHT22;5009;50.656;7.188;2023-12-20T08:08:01;6.90;99.90
9941;DHT22;5009;50.656;7.188;2023-12-20T08:10:26;6.80;99.90
9941;DHT22;5009;50.656;7.188;2023-12-20T08:12:54;6.90;99.90
9941;DHT22;5009;50.656;7.188;2023-12-20T08:15:20;6.90;99.90
9941;DHT22;5009;50.656;7.188;2023-12-20T08:17:46;6.90;99.90
9941;DHT22;5009;50.656;7.188;2023-12-20T08:20:11;6.90;99.90
9941;DHT22;5009;50.656;7.188;2023-12-20T08:22:37;7.00;99.90
9941;DHT22;5009;50.656;7.188;2023-12-20T08:25:02;7.00;99.90
9941;DHT22;5009;50.656;7.188;2023-12-20T08:27:28;7.00;99.90
9941;DHT22;5009;50.656;7.188;2023-12-20T08:29:54;7.00;99.90
9941;DHT22;5009;50.656;7.188;2023-12-20T08:32:19;7.10;99.90
9941;DHT22;5009;50.656;7.188;2023-12-20T08:34:45;7.10;99.90
9941;DHT22;5009;50.656;7.188;2023-12-20T08:37:10;7.10;99.90
9941;DHT22;5009;50.656;7.188;2023-12-20T08:39:36;7.10;99.90
9941;DHT22;5009;50.656;7.188;2023-12-20T08:42:03;7.20;99.90
9941;DHT22;5009;50.656;7.188;2023-12-20T08:44:28;7.20;99.90
9941;DHT22;5009;50.656;7.188;2023-12-20T08:46:54;7.20;99.90
9941;DHT22;5009;50.656;7.188;2023-12-20T08:49:22;7.20;99.90
9941;DHT22;5009;50.656;7.188;2023-12-20T08:51:47;7.30;99.90
9941;DHT22;5009;50.656;7.188;2023-12-20T08:54:13;7.30;99.90
9941;DHT22;5009;50.656;7.188;2023-12-20T08:56:40;7.30;99.90
9941;DHT22;5009;50.656;7.188;2023-12-20T08:59:05;7.30;99.90
9941;DHT22;5009;50.656;7.188;2023-12-20T09:01:31;7.40;99.90
9941;DHT22;5009;50.656;7.188;2023-12-20T09:03:56;7.40;99.90
9941;DHT22;5009;50.656;7.188;2023-12-20T09:06:22;7.40;99.90
9941;DHT22;5009;50.656;7.188;2023-12-20T09:08:47;7.50;99.90
9941;DHT22;5009;50.656;7.188;2023-12-20T09:11:13;7.40;99.90
9941;DHT22;5009;50.656;7.188;2023-12-20T09:13:39;7.40;99.90
9941;DHT22;5009;50.656;7.188;2023-12-20T09:16:05;7.50;99.90
9941;DHT22;5009;50.656;7.188;2023-12-20T09:18:30;7.50;99.90
9941;DHT22;5009;50.656;7.188;2023-12-20T09:20:56;7.60;99.90
9941;DHT22;5009;50.656;7.188;2023-12-20T09:23:21;7.60;99.90
9941;DHT22;5009;50.656;7.188;2023-12-20T09:25:47;7.60;99.90
9941;DHT22;5009;50.656;7.188;2023-12-20T09:28:12;7.60;99.90
9941;DHT22;5009;50.656;7.188;2023-12-20T09:30:38;7.60;99.90
9941;DHT22;5009;50.656;7.188;2023-12-20T09:33:05;7.60;99.90
9941;DHT22;5009;50.656;7.188;2023-12-20T09:35:32;7.70;99.90
9941;DHT22;5009;50.656;7.188;2023-12-20T09:37:58;7.70;99.90
9941;DHT22;5009;50.656;7.188;2023-12-20T09:40:26;7.70;99.90
9941;DHT22;5009;50.656;7.188;2023-12-20T09:43:00;7.80;99.90
9941;DHT22;5009;50.656;7.188;2023-12-20T09:45:30;7.80;99.90
9941;DHT22;5009;50.656;7.188;2023-12-20T09:47:57;7.90;99.90
9941;DHT22;5009;50.656;7.188;2023-12-20T09:50:23;8.00;99.90
9941;DHT22;5009;50.656;7.188;2023-12-20T09:52:53;8.00;99.90
9941;DHT22;5009;50.656;7.188;2023-12-20T09:55:20;8.00;99.90
9941;DHT22;5009;50.656;7.188;2023-12-20T09:57:46;8.00;99.90
9941;DHT22;5009;50.656;7.188;2023-12-20T10:00:13;7.90;99.90
9941;DHT22;5009;50.656;7.188;2023-12-20T10:02:44;8.00;99.90
9941;DHT22;5009;50.656;7.188;2023-12-20T10:05:16;8.00;99.90
9941;DHT22;5009;50.656;7.188;2023-12-20T10:07:44;8.00;99.90
9941;DHT22;5009;50.656;7.188;2023-12-20T10:10:10;8.00;99.90
9941;DHT22;5009;50.656;7.188;2023-12-20T10:12:37;8.00;99.90
9941;DHT22;5009;50.656;7.188;2023-12-20T10:15:04;7.90;99.90
9941;DHT22;5009;50.656;7.188;2023-12-20T10:17:30;7.90;99.90
9941;DHT22;5009;50.656;7.188;2023-12-20T10:19:55;7.90;99.90
9941;DHT22;5009;50.656;7.188;2023-12-20T10:22:21;7.90;99.90
9941;DHT22;5009;50.656;7.188;2023-12-20T10:24:47;7.90;99.90
9941;DHT22;5009;50.656;7.188;2023-12-20T10:27:12;7.90;99.90
9941;DHT22;5009;50.656;7.188;2023-12-20T10:29:38;8.00;99.90
9941;DHT22;5009;50.656;7.188;2023-12-20T10:34:49;7.90;99.90
9941;DHT22;5009;50.656;7.188;2023-12-20T10:37:15;7.90;99.90
9941;DHT22;5009;50.656;7.188;2023-12-20T10:39:42;8.00;99.90
9941;DHT22;5009;50.656;7.188;2023-12-20T10:42:11;7.90;99.90
9941;DHT22;5009;50.656;7.188;2023-12-20T10:44:37;8.00;99.90
9941;DHT22;5009;50.656;7.188;2023-12-20T10:47:04;8.00;99.90
9941;DHT22;5009;50.656;7.188;2023-12-20T10:49:31;8.00;99.90
9941;DHT22;5009;50.656;7.188;2023-12-20T10:51:59;8.00;99.90
9941;DHT22;5009;50.656;7.188;2023-12-20T10:54:27;8.00;99.90
9941;DHT22;5009;50.656;7.188;2023-12-20T10:56:53;8.00;99.90
9941;DHT22;5009;50.656;7.188;2023-12-20T10:59:20;7.90;99.90
9941;DHT22;5009;50.656;7.188;2023-12-20T11:01:47;8.00;99.90
9941;DHT22;5009;50.656;7.188;2023-12-20T11:04:18;8.00;99.90
9941;DHT22;5009;50.656;7.188;2023-12-20T11:06:51;8.00;99.90
9941;DHT22;5009;50.656;7.188;2023-12-20T11:09:59;8.10;99.90
9941;DHT22;5009;50.656;7.188;2023-12-20T11:12:37;8.10;99.90
9941;DHT22;5009;50.656;7.188;2023-12-20T11:15:03;8.20;99.90
9941;DHT22;5009;50.656;7.188;2023-12-20T11:17:31;8.20;99.90
9941;DHT22;5009;50.656;7.188;2023-12-20T11:22:26;8.20;99.90
9941;DHT22;5009;50.656;7.188;2023-12-20T11:24:53;8.20;99.90
9941;DHT22;5009;50.656;7.188;2023-12-20T11:27:19;8.30;99.90
9941;DHT22;5009;50.656;7.188;2023-12-20T11:29:52;8.30;99.90
9941;DHT22;5009;50.656;7.188;2023-12-20T11:34:58;8.40;99.90
9941;DHT22;5009;50.656;7.188;2023-12-20T11:37:30;8.30;99.90
9941;DHT22;5009;50.656;7.188;2023-12-20T11:40:06;8.30;99.90
9941;DHT22;5009;50.656;7.188;2023-12-20T11:43:03;8.30;99.90
9941;DHT22;5009;50.656;7.188;2023-12-20T11:45:30;8.30;99.90
9941;DHT22;5009;50.656;7.188;2023-12-20T11:47:57;8.40;99.90
9941;DHT22;5009;50.656;7.188;2023-12-20T11:50:23;8.40;99.90
9941;DHT22;5009;50.656;7.188;2023-12-20T11:52:51;8.30;99.90
9941;DHT22;5009;50.656;7.188;2023-12-20T11:55:17;8.30;99.90
9941;DHT22;5009;50.656;7.188;2023-12-20T11:57:43;8.40;99.90
9941;DHT22;5009;50.656;7.188;2023-12-20T12:00:09;8.40;99.90
9941;DHT22;5009;50.656;7.188;2023-12-20T12:02:35;8.30;99.90
9941;DHT22;5009;50.656;7.188;2023-12-20T12:05:01;8.40;99.90
9941;DHT22;5009;50.656;7.188;2023-12-20T12:07:26;8.40;99.90
9941;DHT22;5009;50.656;7.188;2023-12-20T12:09:52;8.30;99.90
9941;DHT22;5009;50.656;7.188;2023-12-20T12:12:18;8.40;99.90
9941;DHT22;5009;50.656;7.188;2023-12-20T12:14:45;8.40;99.90
9941;DHT22;5009;50.656;7.188;2023-12-20T12:17:14;8.40;99.90
9941;DHT22;5009;50.656;7.188;2023-12-20T12:19:40;8.50;99.90
9941;DHT22;5009;50.656;7.188;2023-12-20T12:22:11;8.50;99.90
9941;DHT22;5009;50.656;7.188;2023-12-20T12:24:41;8.50;99.90
9941;DHT22;5009;50.656;7.188;2023-12-20T12:27:07;8.40;99.90
9941;DHT22;5009;50.656;7.188;2023-12-20T12:29:34;8.40;99.90
9941;DHT22;5009;50.656;7.188;2023-12-20T12:32:00;8.50;99.90
9941;DHT22;5009;50.656;7.188;2023-12-20T12:34:28;8.60;99.90
9941;DHT22;5009;50.656;7.188;2023-12-20T12:36:54;8.60;99.90
9941;DHT22;5009;50.656;7.188;2023-12-20T12:39:20;8.70;99.90
9941;DHT22;5009;50.656;7.188;2023-12-20T12:41:46;8.70;99.90
9941;DHT22;5009;50.656;7.188;2023-12-20T12:44:12;8.70;99.90
9941;DHT22;5009;50.656;7.188;2023-12-20T12:46:37;8.70;99.90
9941;DHT22;5009;50.656;7.188;2023-12-20T12:49:03;8.70;99.90
9941;DHT22;5009;50.656;7.188;2023-12-20T12:51:29;8.60;99.90
9941;DHT22;5009;50.656;7.188;2023-12-20T12:53:55;8.60;99.90
9941;DHT22;5009;50.656;7.188;2023-12-20T12:56:20;8.60;99.90
9941;DHT22;5009;50.656;7.188;2023-12-20T12:58:47;8.60;99.90
9941;DHT22;5009;50.656;7.188;2023-12-20T13:01:13;8.60;99.90
9941;DHT22;5009;50.656;7.188;2023-12-20T13:03:39;8.50;99.90
9941;DHT22;5009;50.656;7.188;2023-12-20T13:06:05;8.60;99.90
9941;DHT22;5009;50.656;7.188;2023-12-20T13:08:31;8.50;99.90
9941;DHT22;5009;50.656;7.188;2023-12-20T13:10:57;8.50;99.90
9941;DHT22;5009;50.656;7.188;2023-12-20T13:13:26;8.60;99.90
9941;DHT22;5009;50.656;7.188;2023-12-20T13:15:52;8.50;99.90
9941;DHT22;5009;50.656;7.188;2023-12-20T13:18:20;8.50;99.90
9941;DHT22;5009;50.656;7.188;2023-12-20T13:20:46;8.50;99.90
9941;DHT22;5009;50.656;7.188;2023-12-20T13:23:12;8.40;99.90
9941;DHT22;5009;50.656;7.188;2023-12-20T13:25:37;8.40;99.90
9941;DHT22;5009;50.656;7.188;2023-12-20T13:28:03;8.40;99.90
9941;DHT22;5009;50.656;7.188;2023-12-20T13:30:29;8.50;99.90
9941;DHT22;5009;50.656;7.188;2023-12-20T13:32:55;8.60;99.90
9941;DHT22;5009;50.656;7.188;2023-12-20T13:35:20;8.50;99.90
9941;DHT22;5009;50.656;7.188;2023-12-20T13:37:46;8.60;99.90
9941;DHT22;5009;50.656;7.188;2023-12-20T13:40:12;8.60;99.90
9941;DHT22;5009;50.656;7.188;2023-12-20T13:42:39;8.60;99.90
9941;DHT22;5009;50.656;7.188;2023-12-20T13:45:05;8.60;99.90
9941;DHT22;5009;50.656;7.188;2023-12-20T13:47:31;8.60;99.90
9941;DHT22;5009;50.656;7.188;2023-12-20T13:49:57;8.60;99.90
9941;DHT22;5009;50.656;7.188;2023-12-20T13:52:23;8.50;99.90
9941;DHT22;5009;50.656;7.188;2023-12-20T13:54:48;8.50;99.90
9941;DHT22;5009;50.656;7.188;2023-12-20T13:57:14;8.50;99.90
9941;DHT22;5009;50.656;7.188;2023-12-20T13:59:39;8.40;99.90
9941;DHT22;5009;50.656;7.188;2023-12-20T14:02:05;8.40;99.90
9941;DHT22;5009;50.656;7.188;2023-12-20T14:04:31;8.50;99.90
9941;DHT22;5009;50.656;7.188;2023-12-20T14:06:56;8.50;99.90
9941;DHT22;5009;50.656;7.188;2023-12-20T14:09:23;8.40;99.90
9941;DHT22;5009;50.656;7.188;2023-12-20T14:11:48;8.50;99.90
9941;DHT22;5009;50.656;7.188;2023-12-20T14:14:14;8.40;99.90
9941;DHT22;5009;50.656;7.188;2023-12-20T14:16:39;8.40;99.90
9941;DHT22;5009;50.656;7.188;2023-12-20T14:19:05;8.40;99.90
9941;DHT22;5009;50.656;7.188;2023-12-20T14:21:33;8.40;99.90
9941;DHT22;5009;50.656;7.188;2023-12-20T14:23:58;8.40;99.90
9941;DHT22;5009;50.656;7.188;2023-12-20T14:26:24;8.40;99.90
9941;DHT22;5009;50.656;7.188;2023-12-20T14:28:50;8.40;99.90
9941;DHT22;5009;50.656;7.188;2023-12-20T14:31:15;8.30;99.90
9941;DHT22;5009;50.656;7.188;2023-12-20T14:33:41;8.30;99.90
9941;DHT22;5009;50.656;7.188;2023-12-20T14:36:08;8.20;99.90
9941;DHT22;5009;50.656;7.188;2023-12-20T14:38:34;8.20;99.90
9941;DHT22;5009;50.656;7.188;2023-12-20T14:41:00;8.20;99.90
9941;DHT22;5009;50.656;7.188;2023-12-20T14:43:26;8.20;99.90
9941;DHT22;5009;50.656;7.188;2023-12-20T14:45:52;8.20;99.90
9941;DHT22;5009;50.656;7.188;2023-12-20T14:48:17;8.20;99.90
9941;DHT22;5009;50.656;7.188;2023-12-20T14:50:44;8.20;99.90
9941;DHT22;5009;50.656;7.188;2023-12-20T14:53:09;8.20;99.90
9941;DHT22;5009;50.656;7.188;2023-12-20T14:55:35;8.20;99.90
9941;DHT22;5009;50.656;7.188;2023-12-20T14:58:01;8.20;99.90
9941;DHT22;5009;50.656;7.188;2023-12-20T15:00:27;8.20;99.90
9941;DHT22;5009;50.656;7.188;2023-12-20T15:02:52;8.10;99.90
9941;DHT22;5009;50.656;7.188;2023-12-20T15:05:21;8.10;99.90
9941;DHT22;5009;50.656;7.188;2023-12-20T15:07:46;8.20;99.90
9941;DHT22;5009;50.656;7.188;2023-12-20T15:10:13;8.20;99.90
9941;DHT22;5009;50.656;7.188;2023-12-20T15:12:39;8.20;99.90
9941;DHT22;5009;50.656;7.188;2023-12-20T15:15:05;8.20;99.90
9941;DHT22;5009;50.656;7.188;2023-12-20T15:17:31;8.20;99.90
9941;DHT22;5009;50.656;7.188;2023-12-20T15:19:56;8.10;99.90
9941;DHT22;5009;50.656;7.188;2023-12-20T15:22:22;8.10;99.90
9941;DHT22;5009;50.656;7.188;2023-12-20T15:24:48;8.10;99.90
9941;DHT22;5009;50.656;7.188;2023-12-20T15:27:13;8.10;99.90
9941;DHT22;5009;50.656;7.188;2023-12-20T15:29:39;8.10;99.90
9941;DHT22;5009;50.656;7.188;2023-12-20T15:32:04;8.10;99.90
9941;DHT22;5009;50.656;7.188;2023-12-20T15:34:30;8.10;99.90
9941;DHT22;5009;50.656;7.188;2023-12-20T15:36:57;8.10;99.90
9941;DHT22;5009;50.656;7.188;2023-12-20T15:39:22;8.10;99.90
9941;DHT22;5009;50.656;7.188;2023-12-20T15:41:48;8.10;99.90
9941;DHT22;5009;50.656;7.188;2023-12-20T15:44:14;8.10;99.90
9941;DHT22;5009;50.656;7.188;2023-12-20T15:46:40;8.00;99.90
9941;DHT22;5009;50.656;7.188;2023-12-20T15:49:07;8.00;99.90
9941;DHT22;5009;50.656;7.188;2023-12-20T15:51:32;8.00;99.90
9941;DHT22;5009;50.656;7.188;2023-12-20T15:53:58;8.00;99.90
9941;DHT22;5009;50.656;7.188;2023-12-20T15:56:23;8.00;99.90
9941;DHT22;5009;50.656;7.188;2023-12-20T15:58:49;8.00;99.90
9941;DHT22;5009;50.656;7.188;2023-12-20T16:01:17;8.10;99.90
9941;DHT22;5009;50.656;7.188;2023-12-20T16:03:43;8.10;99.90
9941;DHT22;5009;50.656;7.188;2023-12-20T16:06:09;8.10;99.90
9941;DHT22;5009;50.656;7.188;2023-12-20T16:08:35;8.10;99.90
9941;DHT22;5009;50.656;7.188;2023-12-20T16:11:00;8.00;99.90
9941;DHT22;5009;50.656;7.188;2023-12-20T16:13:26;8.00;99.90
9941;DHT22;5009;50.656;7.188;2023-12-20T16:15:52;8.00;99.90
9941;DHT22;5009;50.656;7.188;2023-12-20T16:18:18;8.00;99.90
9941;DHT22;5009;50.656;7.188;2023-12-20T16:20:43;8.10;99.90
9941;DHT22;5009;50.656;7.188;2023-12-20T16:23:09;8.10;99.90
9941;DHT22;5009;50.656;7.188;2023-12-20T16:25:35;8.10;99.90
9941;DHT22;5009;50.656;7.188;2023-12-20T16:28:06;8.10;99.90
9941;DHT22;5009;50.656;7.188;2023-12-20T16:30:31;8.10;99.90
9941;DHT22;5009;50.656;7.188;2023-12-20T16:32:57;8.10;99.90
9941;DHT22;5009;50.656;7.188;2023-12-20T16:35:23;8.10;99.90
9941;DHT22;5009;50.656;7.188;2023-12-20T16:37:49;8.10;99.90
9941;DHT22;5009;50.656;7.188;2023-12-20T16:40:15;8.10;99.90
9941;DHT22;5009;50.656;7.188;2023-12-20T16:42:40;8.10;99.90
9941;DHT22;5009;50.656;7.188;2023-12-20T16:45:06;8.20;99.90
9941;DHT22;5009;50.656;7.188;2023-12-20T16:47:32;8.20;99.90
9941;DHT22;5009;50.656;7.188;2023-12-20T16:49:57;8.20;99.90
9941;DHT22;5009;50.656;7.188;2023-12-20T16:52:23;8.20;99.90
9941;DHT22;5009;50.656;7.188;2023-12-20T16:54:49;8.20;99.90
9941;DHT22;5009;50.656;7.188;2023-12-20T16:57:15;8.20;99.90
9941;DHT22;5009;50.656;7.188;2023-12-20T16:59:43;8.20;99.90
9941;DHT22;5009;50.656;7.188;2023-12-20T17:02:09;8.20;99.90
9941;DHT22;5009;50.656;7.188;2023-12-20T17:04:34;8.20;99.90
9941;DHT22;5009;50.656;7.188;2023-12-20T17:07:01;8.10;99.90
9941;DHT22;5009;50.656;7.188;2023-12-20T17:09:26;8.20;99.90
9941;DHT22;5009;50.656;7.188;2023-12-20T17:11:52;8.20;99.90
9941;DHT22;5009;50.656;7.188;2023-12-20T17:14:18;8.20;99.90
9941;DHT22;5009;50.656;7.188;2023-12-20T17:16:43;8.20;99.90
9941;DHT22;5009;50.656;7.188;2023-12-20T17:19:09;8.20;99.90
9941;DHT22;5009;50.656;7.188;2023-12-20T17:21:34;8.20;99.90
9941;DHT22;5009;50.656;7.188;2023-12-20T17:24:02;8.20;99.90
9941;DHT22;5009;50.656;7.188;2023-12-20T17:26:28;8.20;99.90
9941;DHT22;5009;50.656;7.188;2023-12-20T17:28:54;8.20;99.90
9941;DHT22;5009;50.656;7.188;2023-12-20T17:31:19;8.20;99.90
9941;DHT22;5009;50.656;7.188;2023-12-20T17:33:45;8.20;99.90
9941;DHT22;5009;50.656;7.188;2023-12-20T17:36:10;8.20;99.90
9941;DHT22;5009;50.656;7.188;2023-12-20T17:38:39;8.30;99.90
9941;DHT22;5009;50.656;7.188;2023-12-20T17:41:05;8.30;99.90
9941;DHT22;5009;50.656;7.188;2023-12-20T17:43:32;8.30;99.90
9941;DHT22;5009;50.656;7.188;2023-12-20T17:45:57;8.20;99.90
9941;DHT22;5009;50.656;7.188;2023-12-20T17:48:23;8.20;99.90
9941;DHT22;5009;50.656;7.188;2023-12-20T17:50:49;8.30;99.90
9941;DHT22;5009;50.656;7.188;2023-12-20T17:53:15;8.20;99.90
9941;DHT22;5009;50.656;7.188;2023-12-20T17:55:41;8.20;99.90
9941;DHT22;5009;50.656;7.188;2023-12-20T17:58:06;8.30;99.90
9941;DHT22;5009;50.656;7.188;2023-12-20T18:00:34;8.30;99.90
9941;DHT22;5009;50.656;7.188;2023-12-20T18:03:00;8.20;99.90
9941;DHT22;5009;50.656;7.188;2023-12-20T18:05:26;8.20;99.90
9941;DHT22;5009;50.656;7.188;2023-12-20T18:07:52;8.20;99.90
9941;DHT22;5009;50.656;7.188;2023-12-20T18:10:18;8.20;99.90
9941;DHT22;5009;50.656;7.188;2023-12-20T18:12:45;8.20;99.90
9941;DHT22;5009;50.656;7.188;2023-12-20T18:15:11;8.20;99.90
9941;DHT22;5009;50.656;7.188;2023-12-20T18:17:37;8.20;99.90
9941;DHT22;5009;50.656;7.188;2023-12-20T18:20:03;8.20;99.90
9941;DHT22;5009;50.656;7.188;2023-12-20T18:22:29;8.20;99.90
9941;DHT22;5009;50.656;7.188;2023-12-20T18:24:55;8.20;99.90
9941;DHT22;5009;50.656;7.188;2023-12-20T18:27:22;8.10;99.90
9941;DHT22;5009;50.656;7.188;2023-12-20T18:29:48;8.20;99.90
9941;DHT22;5009;50.656;7.188;2023-12-20T18:32:13;8.20;99.90
9941;DHT22;5009;50.656;7.188;2023-12-20T18:34:39;8.20;99.90
9941;DHT22;5009;50.656;7.188;2023-12-20T18:37:04;8.20;99.90
9941;DHT22;5009;50.656;7.188;2023-12-20T18:39:32;8.20;99.90
9941;DHT22;5009;50.656;7.188;2023-12-20T18:41:58;8.10;99.90
9941;DHT22;5009;50.656;7.188;2023-12-20T18:44:23;8.10;99.90
9941;DHT22;5009;50.656;7.188;2023-12-20T18:46:49;8.10;99.90
9941;DHT22;5009;50.656;7.188;2023-12-20T18:49:16;8.20;99.90
9941;DHT22;5009;50.656;7.188;2023-12-20T18:51:43;8.20;99.90
9941;DHT22;5009;50.656;7.188;2023-12-20T18:54:08;8.20;99.90
9941;DHT22;5009;50.656;7.188;2023-12-20T18:56:34;8.30;99.90
9941;DHT22;5009;50.656;7.188;2023-12-20T18:59:02;8.20;99.90
9941;DHT22;5009;50.656;7.188;2023-12-20T19:01:28;8.30;99.90
9941;DHT22;5009;50.656;7.188;2023-12-20T19:03:54;8.30;99.90
9941;DHT22;5009;50.656;7.188;2023-12-20T19:06:19;8.20;99.90
9941;DHT22;5009;50.656;7.188;2023-12-20T19:08:45;8.20;99.90
9941;DHT22;5009;50.656;7.188;2023-12-20T19:11:15;8.20;99.90
9941;DHT22;5009;50.656;7.188;2023-12-20T19:13:41;8.20;99.90
9941;DHT22;5009;50.656;7.188;2023-12-20T19:16:06;8.20;99.90
9941;DHT22;5009;50.656;7.188;2023-12-20T19:18:32;8.20;99.90
9941;DHT22;5009;50.656;7.188;2023-12-20T19:20:58;8.30;99.90
9941;DHT22;5009;50.656;7.188;2023-12-20T19:23:24;8.20;99.90
9941;DHT22;5009;50.656;7.188;2023-12-20T19:25:50;8.30;99.90
9941;DHT22;5009;50.656;7.188;2023-12-20T19:28:16;8.30;99.90
9941;DHT22;5009;50.656;7.188;2023-12-20T19:30:42;8.30;99.90
9941;DHT22;5009;50.656;7.188;2023-12-20T19:33:08;8.30;99.90
9941;DHT22;5009;50.656;7.188;2023-12-20T19:35:34;8.30;99.90
9941;DHT22;5009;50.656;7.188;2023-12-20T19:37:59;8.30;99.90
9941;DHT22;5009;50.656;7.188;2023-12-20T19:40:25;8.20;99.90
9941;DHT22;5009;50.656;7.188;2023-12-20T19:42:50;8.20;99.90
9941;DHT22;5009;50.656;7.188;2023-12-20T19:45:16;8.20;99.90
9941;DHT22;5009;50.656;7.188;2023-12-20T19:47:51;8.20;99.90
9941;DHT22;5009;50.656;7.188;2023-12-20T19:50:17;8.20;99.90
9941;DHT22;5009;50.656;7.188;2023-12-20T19:52:43;8.20;99.90
9941;DHT22;5009;50.656;7.188;2023-12-20T19:55:09;8.20;99.90
9941;DHT22;5009;50.656;7.188;2023-12-20T19:57:35;8.20;99.90
9941;DHT22;5009;50.656;7.188;2023-12-20T20:00:00;8.30;99.90
9941;DHT22;5009;50.656;7.188;2023-12-20T20:02:26;8.30;99.90
9941;DHT22;5009;50.656;7.188;2023-12-20T20:04:52;8.20;99.90
9941;DHT22;5009;50.656;7.188;2023-12-20T20:07:17;8.20;99.90
9941;DHT22;5009;50.656;7.188;2023-12-20T20:09:48;8.20;99.90
9941;DHT22;5009;50.656;7.188;2023-12-20T20:12:14;8.20;99.90
9941;DHT22;5009;50.656;7.188;2023-12-20T20:14:39;8.20;99.90
9941;DHT22;5009;50.656;7.188;2023-12-20T20:17:05;8.30;99.90
9941;DHT22;5009;50.656;7.188;2023-12-20T20:19:31;8.20;99.90
9941;DHT22;5009;50.656;7.188;2023-12-20T20:21:57;8.30;99.90
9941;DHT22;5009;50.656;7.188;2023-12-20T20:24:22;8.30;99.90
9941;DHT22;5009;50.656;7.188;2023-12-20T20:26:49;8.20;99.90
9941;DHT22;5009;50.656;7.188;2023-12-20T20:29:15;8.20;99.90
9941;DHT22;5009;50.656;7.188;2023-12-20T20:31:40;8.30;99.90
9941;DHT22;5009;50.656;7.188;2023-12-20T20:34:06;8.30;99.90
9941;DHT22;5009;50.656;7.188;2023-12-20T20:36:31;8.40;99.90
9941;DHT22;5009;50.656;7.188;2023-12-20T20:38:57;8.40;99.90
9941;DHT22;5009;50.656;7.188;2023-12-20T20:41:22;8.40;99.90
9941;DHT22;5009;50.656;7.188;2023-12-20T20:43:48;8.40;99.90
9941;DHT22;5009;50.656;7.188;2023-12-20T20:46:14;8.40;99.90
9941;DHT22;5009;50.656;7.188;2023-12-20T20:48:40;8.40;99.90
9941;DHT22;5009;50.656;7.188;2023-12-20T20:51:05;8.40;99.90
9941;DHT22;5009;50.656;7.188;2023-12-20T20:53:31;8.40;99.90
9941;DHT22;5009;50.656;7.188;2023-12-20T20:55:57;8.50;99.90
9941;DHT22;5009;50.656;7.188;2023-12-20T20:58:24;8.50;99.90
9941;DHT22;5009;50.656;7.188;2023-12-20T21:00:50;8.50;99.90
9941;DHT22;5009;50.656;7.188;2023-12-20T21:03:16;8.60;99.90
9941;DHT22;5009;50.656;7.188;2023-12-20T21:05:42;8.60;99.90
9941;DHT22;5009;50.656;7.188;2023-12-20T21:08:08;8.70;99.90
9941;DHT22;5009;50.656;7.188;2023-12-20T21:10:34;8.70;99.90
9941;DHT22;5009;50.656;7.188;2023-12-20T21:13:00;8.60;99.90
9941;DHT22;5009;50.656;7.188;2023-12-20T21:15:25;8.60;99.90
9941;DHT22;5009;50.656;7.188;2023-12-20T21:17:51;8.60;99.90